sensor_id;sensor_type;location;lat;lon;timestamp;pressure;altitude;pressure_sealevel;temperature
40199;BMP280;25906;43.536;26.068;2023-04-24T00:01:16;98669.38;;;11.01
40199;BMP280;25906;43.536;26.068;2023-04-24T00:04:02;98663.03;;;10.99
40199;BMP280;25906;43.536;26.068;2023-04-24T00:06:48;98662.69;;;10.84
40199;BMP280;25906;43.536;26.068;2023-04-24T00:09:38;98668.44;;;10.95
40199;BMP280;25906;43.536;26.068;2023-04-24T00:12:25;98660.81;;;10.97
40199;BMP280;25906;43.536;26.068;2023-04-24T00:15:10;98661.25;;;10.96
40199;BMP280;25906;43.536;26.068;2023-04-24T00:17:56;98661.25;;;10.96
40199;BMP280;25906;43.536;26.068;2023-04-24T00:20:41;98651.41;;;10.96
40199;BMP280;25906;43.536;26.068;2023-04-24T00:23:28;98649.59;;;10.93
40199;BMP280;25906;43.536;26.068;2023-04-24T00:26:14;98653.53;;;10.89
40199;BMP280;25906;43.536;26.068;2023-04-24T00:28:59;98646.09;;;10.84
40199;BMP280;25906;43.536;26.068;2023-04-24T00:31:45;98650.44;;;10.90
40199;BMP280;25906;43.536;26.068;2023-04-24T00:34:30;98649.66;;;10.77
40199;BMP280;25906;43.536;26.068;2023-04-24T00:37:17;98647.56;;;10.85
40199;BMP280;25906;43.536;26.068;2023-04-24T00:40:03;98649.78;;;10.86
40199;BMP280;25906;43.536;26.068;2023-04-24T00:42:48;98643.56;;;10.80
40199;BMP280;25906;43.536;26.068;2023-04-24T00:45:34;98644.16;;;10.84
40199;BMP280;25906;43.536;26.068;2023-04-24T00:48:20;98648.09;;;10.80
40199;BMP280;25906;43.536;26.068;2023-04-24T00:51:06;98641.53;;;10.72
40199;BMP280;25906;43.536;26.068;2023-04-24T00:53:52;98641.97;;;10.83
40199;BMP280;25906;43.536;26.068;2023-04-24T00:56:37;98636.00;;;10.66
40199;BMP280;25906;43.536;26.068;2023-04-24T00:59:23;98636.44;;;10.65
40199;BMP280;25906;43.536;26.068;2023-04-24T01:02:09;98635.34;;;10.49
40199;BMP280;25906;43.536;26.068;2023-04-24T01:04:56;98635.84;;;10.44
40199;BMP280;25906;43.536;26.068;2023-04-24T01:07:43;98631.94;;;10.49
40199;BMP280;25906;43.536;26.068;2023-04-24T01:10:32;98637.47;;;10.54
40199;BMP280;25906;43.536;26.068;2023-04-24T01:13:19;98625.41;;;10.53
40199;BMP280;25906;43.536;26.068;2023-04-24T01:16:04;98632.69;;;10.49
40199;BMP280;25906;43.536;26.068;2023-04-24T01:18:50;98625.25;;;10.44
40199;BMP280;25906;43.536;26.068;2023-04-24T01:21:37;98622.81;;;10.37
40199;BMP280;25906;43.536;26.068;2023-04-24T01:24:22;98618.78;;;10.33
40199;BMP280;25906;43.536;26.068;2023-04-24T01:27:08;98618.63;;;10.40
40199;BMP280;25906;43.536;26.068;2023-04-24T01:29:54;98614.44;;;10.26
40199;BMP280;25906;43.536;26.068;2023-04-24T01:32:41;98611.78;;;10.26
40199;BMP280;25906;43.536;26.068;2023-04-24T01:35:29;98619.31;;;10.28
40199;BMP280;25906;43.536;26.068;2023-04-24T01:38:14;98620.56;;;10.23
40199;BMP280;25906;43.536;26.068;2023-04-24T01:41:00;98608.69;;;10.15
40199;BMP280;25906;43.536;26.068;2023-04-24T01:43:46;98610.19;;;10.29
40199;BMP280;25906;43.536;26.068;2023-04-24T01:46:31;98603.66;;;10.33
40199;BMP280;25906;43.536;26.068;2023-04-24T01:49:19;98607.16;;;10.30
40199;BMP280;25906;43.536;26.068;2023-04-24T01:52:06;98600.06;;;10.27
40199;BMP280;25906;43.536;26.068;2023-04-24T01:54:52;98601.44;;;10.32
40199;BMP280;25906;43.536;26.068;2023-04-24T01:57:38;98595.09;;;10.29
40199;BMP280;25906;43.536;26.068;2023-04-24T02:00:23;98591.06;;;10.37
40199;BMP280;25906;43.536;26.068;2023-04-24T02:03:09;98600.38;;;10.29
40199;BMP280;25906;43.536;26.068;2023-04-24T02:05:55;98596.53;;;10.18
40199;BMP280;25906;43.536;26.068;2023-04-24T02:08:40;98596.13;;;10.19
40199;BMP280;25906;43.536;26.068;2023-04-24T02:11:26;98588.25;;;10.03
40199;BMP280;25906;43.536;26.068;2023-04-24T02:14:11;98578.50;;;10.00
40199;BMP280;25906;43.536;26.068;2023-04-24T02:16:57;98583.78;;;10.00
40199;BMP280;25906;43.536;26.068;2023-04-24T02:19:42;98572.59;;;9.96
40199;BMP280;25906;43.536;26.068;2023-04-24T02:22:28;98572.66;;;9.92
40199;BMP280;25906;43.536;26.068;2023-04-24T02:25:13;98565.28;;;10.00
40199;BMP280;25906;43.536;26.068;2023-04-24T02:27:59;98568.66;;;9.88
40199;BMP280;25906;43.536;26.068;2023-04-24T02:30:44;98569.59;;;9.94
40199;BMP280;25906;43.536;26.068;2023-04-24T02:33:30;98559.81;;;10.07
40199;BMP280;25906;43.536;26.068;2023-04-24T02:36:15;98569.88;;;10.12
40199;BMP280;25906;43.536;26.068;2023-04-24T02:39:01;98563.97;;;10.21
40199;BMP280;25906;43.536;26.068;2023-04-24T02:41:46;98558.16;;;10.26
40199;BMP280;25906;43.536;26.068;2023-04-24T02:44:31;98554.25;;;10.30
40199;BMP280;25906;43.536;26.068;2023-04-24T02:47:17;98556.59;;;10.28
40199;BMP280;25906;43.536;26.068;2023-04-24T02:50:02;98562.50;;;10.32
40199;BMP280;25906;43.536;26.068;2023-04-24T02:52:48;98560.28;;;10.31
40199;BMP280;25906;43.536;26.068;2023-04-24T02:55:33;98555.63;;;10.22
40199;BMP280;25906;43.536;26.068;2023-04-24T02:58:19;98553.34;;;10.08
40199;BMP280;25906;43.536;26.068;2023-04-24T03:01:04;98554.63;;;10.03
40199;BMP280;25906;43.536;26.068;2023-04-24T03:03:50;98553.66;;;9.97
40199;BMP280;25906;43.536;26.068;2023-04-24T03:06:35;98550.91;;;10.01
40199;BMP280;25906;43.536;26.068;2023-04-24T03:09:21;98556.31;;;10.10
40199;BMP280;25906;43.536;26.068;2023-04-24T03:12:06;98555.22;;;9.95
40199;BMP280;25906;43.536;26.068;2023-04-24T03:14:52;98550.50;;;10.02
40199;BMP280;25906;43.536;26.068;2023-04-24T03:17:37;98550.81;;;10.04
40199;BMP280;25906;43.536;26.068;2023-04-24T03:20:23;98548.25;;;10.01
40199;BMP280;25906;43.536;26.068;2023-04-24T03:23:08;98548.81;;;10.08
40199;BMP280;25906;43.536;26.068;2023-04-24T03:25:53;98552.72;;;10.04
40199;BMP280;25906;43.536;26.068;2023-04-24T03:28:40;98562.13;;;10.05
40199;BMP280;25906;43.536;26.068;2023-04-24T03:31:25;98562.38;;;10.10
40199;BMP280;25906;43.536;26.068;2023-04-24T03:34:11;98553.28;;;10.11
40199;BMP280;25906;43.536;26.068;2023-04-24T03:36:56;98556.44;;;10.06
40199;BMP280;25906;43.536;26.068;2023-04-24T03:39:42;98554.84;;;10.09
40199;BMP280;25906;43.536;26.068;2023-04-24T03:42:27;98556.22;;;10.13
40199;BMP280;25906;43.536;26.068;2023-04-24T03:45:13;98551.38;;;10.12
40199;BMP280;25906;43.536;26.068;2023-04-24T03:47:58;98559.41;;;10.21
40199;BMP280;25906;43.536;26.068;2023-04-24T03:50:44;98556.13;;;10.17
40199;BMP280;25906;43.536;26.068;2023-04-24T03:53:29;98558.25;;;10.22
40199;BMP280;25906;43.536;26.068;2023-04-24T03:56:15;98563.53;;;10.22
40199;BMP280;25906;43.536;26.068;2023-04-24T03:59:00;98568.44;;;10.24
40199;BMP280;25906;43.536;26.068;2023-04-24T04:01:45;98562.69;;;10.25
40199;BMP280;25906;43.536;26.068;2023-04-24T04:04:31;98572.03;;;10.30
40199;BMP280;25906;43.536;26.068;2023-04-24T04:07:16;98576.47;;;10.20
40199;BMP280;25906;43.536;26.068;2023-04-24T04:10:02;98573.06;;;10.32
40199;BMP280;25906;43.536;26.068;2023-04-24T04:12:48;98572.91;;;10.39
40199;BMP280;25906;43.536;26.068;2023-04-24T04:15:33;98574.38;;;10.40
40199;BMP280;25906;43.536;26.068;2023-04-24T04:18:19;98571.00;;;10.40
40199;BMP280;25906;43.536;26.068;2023-04-24T04:21:04;98573.75;;;10.49
40199;BMP280;25906;43.536;26.068;2023-04-24T04:23:50;98576.94;;;10.56
40199;BMP280;25906;43.536;26.068;2023-04-24T04:26:35;98581.28;;;10.76
40199;BMP280;25906;43.536;26.068;2023-04-24T04:29:22;98579.81;;;10.87
40199;BMP280;25906;43.536;26.068;2023-04-24T04:32:08;98587.75;;;11.00
40199;BMP280;25906;43.536;26.068;2023-04-24T04:34:54;98581.59;;;11.03
40199;BMP280;25906;43.536;26.068;2023-04-24T04:37:39;98588.91;;;10.99
40199;BMP280;25906;43.536;26.068;2023-04-24T04:40:25;98581.06;;;10.95
40199;BMP280;25906;43.536;26.068;2023-04-24T04:43:11;98584.25;;;11.03
40199;BMP280;25906;43.536;26.068;2023-04-24T04:45:58;98577.03;;;11.03
40199;BMP280;25906;43.536;26.068;2023-04-24T04:48:43;98581.69;;;11.12
40199;BMP280;25906;43.536;26.068;2023-04-24T04:51:29;98577.22;;;11.09
40199;BMP280;25906;43.536;26.068;2023-04-24T04:54:16;98574.69;;;11.18
40199;BMP280;25906;43.536;26.068;2023-04-24T04:57:01;98576.16;;;11.19
40199;BMP280;25906;43.536;26.068;2023-04-24T04:59:47;98580.47;;;11.38
40199;BMP280;25906;43.536;26.068;2023-04-24T05:02:32;98580.34;;;11.42
40199;BMP280;25906;43.536;26.068;2023-04-24T05:05:18;98580.91;;;11.58
40199;BMP280;25906;43.536;26.068;2023-04-24T05:08:03;98574.38;;;11.85
40199;BMP280;25906;43.536;26.068;2023-04-24T05:10:49;98569.31;;;11.99
40199;BMP280;25906;43.536;26.068;2023-04-24T05:13:34;98577.19;;;12.12
40199;BMP280;25906;43.536;26.068;2023-04-24T05:16:20;98574.94;;;12.32
40199;BMP280;25906;43.536;26.068;2023-04-24T05:19:05;98563.72;;;12.28
40199;BMP280;25906;43.536;26.068;2023-04-24T05:21:51;98563.22;;;12.42
40199;BMP280;25906;43.536;26.068;2023-04-24T05:24:36;98553.97;;;12.56
40199;BMP280;25906;43.536;26.068;2023-04-24T05:27:22;98553.97;;;12.65
40199;BMP280;25906;43.536;26.068;2023-04-24T05:30:08;98558.88;;;12.76
40199;BMP280;25906;43.536;26.068;2023-04-24T05:32:54;98555.56;;;13.02
40199;BMP280;25906;43.536;26.068;2023-04-24T05:35:40;98562.66;;;13.15
40199;BMP280;25906;43.536;26.068;2023-04-24T05:38:30;98560.16;;;13.20
40199;BMP280;25906;43.536;26.068;2023-04-24T05:41:16;98565.47;;;13.20
40199;BMP280;25906;43.536;26.068;2023-04-24T05:44:01;98571.50;;;13.39
40199;BMP280;25906;43.536;26.068;2023-04-24T05:46:47;98566.63;;;13.74
40199;BMP280;25906;43.536;26.068;2023-04-24T05:49:32;98570.00;;;13.83
40199;BMP280;25906;43.536;26.068;2023-04-24T05:52:17;98569.84;;;13.96
40199;BMP280;25906;43.536;26.068;2023-04-24T05:55:03;98560.94;;;14.08
40199;BMP280;25906;43.536;26.068;2023-04-24T05:57:48;98564.91;;;14.22
40199;BMP280;25906;43.536;26.068;2023-04-24T06:00:34;98567.13;;;14.23
40199;BMP280;25906;43.536;26.068;2023-04-24T06:03:20;98557.91;;;14.33
40199;BMP280;25906;43.536;26.068;2023-04-24T06:06:06;98563.03;;;14.46
40199;BMP280;25906;43.536;26.068;2023-04-24T06:08:52;98556.88;;;14.64
40199;BMP280;25906;43.536;26.068;2023-04-24T06:11:37;98550.47;;;14.70
40199;BMP280;25906;43.536;26.068;2023-04-24T06:14:22;98558.00;;;14.95
40199;BMP280;25906;43.536;26.068;2023-04-24T06:17:08;98561.84;;;15.18
40199;BMP280;25906;43.536;26.068;2023-04-24T06:19:53;98557.25;;;15.19
40199;BMP280;25906;43.536;26.068;2023-04-24T06:22:38;98557.34;;;15.24
40199;BMP280;25906;43.536;26.068;2023-04-24T06:25:25;98552.31;;;15.41
40199;BMP280;25906;43.536;26.068;2023-04-24T06:28:12;98556.09;;;15.49
40199;BMP280;25906;43.536;26.068;2023-04-24T06:30:57;98546.38;;;15.61
40199;BMP280;25906;43.536;26.068;2023-04-24T06:33:43;98558.00;;;15.78
40199;BMP280;25906;43.536;26.068;2023-04-24T06:36:28;98556.13;;;15.93
40199;BMP280;25906;43.536;26.068;2023-04-24T06:39:14;98556.09;;;16.07
40199;BMP280;25906;43.536;26.068;2023-04-24T06:41:59;98552.31;;;16.14
40199;BMP280;25906;43.536;26.068;2023-04-24T06:44:45;98558.75;;;16.07
40199;BMP280;25906;43.536;26.068;2023-04-24T06:47:31;98547.66;;;16.29
40199;BMP280;25906;43.536;26.068;2023-04-24T06:50:16;98547.41;;;16.67
40199;BMP280;25906;43.536;26.068;2023-04-24T06:53:02;98555.03;;;16.95
40199;BMP280;25906;43.536;26.068;2023-04-24T06:55:47;98549.94;;;17.17
40199;BMP280;25906;43.536;26.068;2023-04-24T06:58:33;98551.44;;;17.49
40199;BMP280;25906;43.536;26.068;2023-04-24T07:01:19;98544.06;;;17.70
40199;BMP280;25906;43.536;26.068;2023-04-24T07:04:04;98552.91;;;18.13
40199;BMP280;25906;43.536;26.068;2023-04-24T07:06:50;98557.81;;;18.25
40199;BMP280;25906;43.536;26.068;2023-04-24T07:09:36;98556.88;;;18.23
40199;BMP280;25906;43.536;26.068;2023-04-24T07:12:23;98557.34;;;18.27
40199;BMP280;25906;43.536;26.068;2023-04-24T07:15:09;98556.22;;;18.45
40199;BMP280;25906;43.536;26.068;2023-04-24T07:17:55;98554.56;;;18.58
40199;BMP280;25906;43.536;26.068;2023-04-24T07:20:41;98562.03;;;18.97
40199;BMP280;25906;43.536;26.068;2023-04-24T07:23:26;98556.22;;;19.09
40199;BMP280;25906;43.536;26.068;2023-04-24T07:26:12;98555.72;;;19.22
40199;BMP280;25906;43.536;26.068;2023-04-24T07:28:59;98554.56;;;19.51
40199;BMP280;25906;43.536;26.068;2023-04-24T07:31:45;98552.09;;;19.64
40199;BMP280;25906;43.536;26.068;2023-04-24T07:34:30;98555.03;;;19.71
40199;BMP280;25906;43.536;26.068;2023-04-24T07:37:16;98559.38;;;19.91
40199;BMP280;25906;43.536;26.068;2023-04-24T07:40:01;98557.13;;;20.12
40199;BMP280;25906;43.536;26.068;2023-04-24T07:42:47;98555.44;;;20.14
40199;BMP280;25906;43.536;26.068;2023-04-24T07:45:36;98553.66;;;20.33
40199;BMP280;25906;43.536;26.068;2023-04-24T07:48:22;98556.13;;;20.26
40199;BMP280;25906;43.536;26.068;2023-04-24T07:51:07;98551.59;;;20.56
40199;BMP280;25906;43.536;26.068;2023-04-24T07:53:55;98551.28;;;20.71
40199;BMP280;25906;43.536;26.068;2023-04-24T07:56:41;98548.56;;;20.76
40199;BMP280;25906;43.536;26.068;2023-04-24T07:59:27;98552.00;;;20.77
40199;BMP280;25906;43.536;26.068;2023-04-24T08:02:13;98549.22;;;20.88
40199;BMP280;25906;43.536;26.068;2023-04-24T08:04:58;98551.25;;;21.17
40199;BMP280;25906;43.536;26.068;2023-04-24T08:07:45;98548.50;;;20.93
40199;BMP280;25906;43.536;26.068;2023-04-24T08:10:33;98543.25;;;21.36
40199;BMP280;25906;43.536;26.068;2023-04-24T08:13:19;98544.63;;;21.48
40199;BMP280;25906;43.536;26.068;2023-04-24T08:16:04;98544.09;;;21.55
40199;BMP280;25906;43.536;26.068;2023-04-24T08:18:50;98541.91;;;21.77
40199;BMP280;25906;43.536;26.068;2023-04-24T08:21:35;98543.44;;;21.97
40199;BMP280;25906;43.536;26.068;2023-04-24T08:24:22;98540.84;;;21.86
40199;BMP280;25906;43.536;26.068;2023-04-24T08:27:08;98539.84;;;21.89
40199;BMP280;25906;43.536;26.068;2023-04-24T08:29:54;98538.94;;;21.81
40199;BMP280;25906;43.536;26.068;2023-04-24T08:32:39;98530.81;;;21.62
40199;BMP280;25906;43.536;26.068;2023-04-24T08:35:25;98539.97;;;22.21
40199;BMP280;25906;43.536;26.068;2023-04-24T08:38:10;98534.13;;;22.17
40199;BMP280;25906;43.536;26.068;2023-04-24T08:40:58;98534.31;;;21.76
40199;BMP280;25906;43.536;26.068;2023-04-24T08:43:47;98524.25;;;22.01
40199;BMP280;25906;43.536;26.068;2023-04-24T08:46:33;98530.97;;;21.70
40199;BMP280;25906;43.536;26.068;2023-04-24T08:49:18;98519.34;;;21.80
40199;BMP280;25906;43.536;26.068;2023-04-24T08:52:04;98519.34;;;21.80
40199;BMP280;25906;43.536;26.068;2023-04-24T08:54:50;98519.50;;;22.12
40199;BMP280;25906;43.536;26.068;2023-04-24T08:57:35;98509.00;;;22.27
40199;BMP280;25906;43.536;26.068;2023-04-24T09:00:23;98512.47;;;22.22
40199;BMP280;25906;43.536;26.068;2023-04-24T09:03:09;98520.56;;;22.41
40199;BMP280;25906;43.536;26.068;2023-04-24T09:05:55;98509.03;;;22.22
40199;BMP280;25906;43.536;26.068;2023-04-24T09:08:42;98507.38;;;22.37
40199;BMP280;25906;43.536;26.068;2023-04-24T09:11:30;98508.00;;;22.81
40199;BMP280;25906;43.536;26.068;2023-04-24T09:14:17;98507.38;;;22.37
40199;BMP280;25906;43.536;26.068;2023-04-24T09:17:03;98500.06;;;22.70
40199;BMP280;25906;43.536;26.068;2023-04-24T09:19:48;98506.03;;;22.81
40199;BMP280;25906;43.536;26.068;2023-04-24T09:22:34;98499.75;;;23.05
40199;BMP280;25906;43.536;26.068;2023-04-24T09:25:19;98492.19;;;23.03
40199;BMP280;25906;43.536;26.068;2023-04-24T09:28:05;98495.44;;;23.15
40199;BMP280;25906;43.536;26.068;2023-04-24T09:31:08;98494.22;;;22.84
40199;BMP280;25906;43.536;26.068;2023-04-24T09:33:59;98493.78;;;23.25
40199;BMP280;25906;43.536;26.068;2023-04-24T09:36:45;98495.28;;;23.52
40199;BMP280;25906;43.536;26.068;2023-04-24T09:39:30;98487.44;;;23.36
40199;BMP280;25906;43.536;26.068;2023-04-24T09:42:16;98485.16;;;23.27
40199;BMP280;25906;43.536;26.068;2023-04-24T09:45:01;98488.38;;;22.80
40199;BMP280;25906;43.536;26.068;2023-04-24T09:47:51;98489.72;;;23.19
40199;BMP280;25906;43.536;26.068;2023-04-24T09:50:36;98490.34;;;23.11
40199;BMP280;25906;43.536;26.068;2023-04-24T09:53:25;98478.81;;;22.47
40199;BMP280;25906;43.536;26.068;2023-04-24T09:56:11;98484.28;;;22.61
40199;BMP280;25906;43.536;26.068;2023-04-24T09:59:07;98481.63;;;22.74
40199;BMP280;25906;43.536;26.068;2023-04-24T10:01:52;98480.34;;;22.43
40199;BMP280;25906;43.536;26.068;2023-04-24T10:04:37;98484.06;;;22.21
40199;BMP280;25906;43.536;26.068;2023-04-24T10:07:25;98488.13;;;21.91
40199;BMP280;25906;43.536;26.068;2023-04-24T10:10:11;98469.59;;;22.56
40199;BMP280;25906;43.536;26.068;2023-04-24T10:12:57;98478.00;;;22.15
40199;BMP280;25906;43.536;26.068;2023-04-24T10:15:42;98471.06;;;21.82
40199;BMP280;25906;43.536;26.068;2023-04-24T10:18:28;98472.25;;;22.06
40199;BMP280;25906;43.536;26.068;2023-04-24T10:21:14;98464.31;;;22.50
40199;BMP280;25906;43.536;26.068;2023-04-24T10:24:00;98462.75;;;22.87
40199;BMP280;25906;43.536;26.068;2023-04-24T10:26:48;98458.00;;;22.93
40199;BMP280;25906;43.536;26.068;2023-04-24T10:29:35;98460.50;;;22.91
40199;BMP280;25906;43.536;26.068;2023-04-24T10:32:21;98465.25;;;22.34
40199;BMP280;25906;43.536;26.068;2023-04-24T10:35:07;98463.34;;;22.29
40199;BMP280;25906;43.536;26.068;2023-04-24T10:37:59;98467.59;;;22.06
40199;BMP280;25906;43.536;26.068;2023-04-24T10:40:47;98458.41;;;22.33
40199;BMP280;25906;43.536;26.068;2023-04-24T10:43:33;98455.56;;;22.44
40199;BMP280;25906;43.536;26.068;2023-04-24T10:46:21;98451.84;;;22.47
40199;BMP280;25906;43.536;26.068;2023-04-24T10:49:07;98451.59;;;22.45
40199;BMP280;25906;43.536;26.068;2023-04-24T10:51:54;98455.78;;;22.78
40199;BMP280;25906;43.536;26.068;2023-04-24T10:54:46;98449.31;;;23.13
40199;BMP280;25906;43.536;26.068;2023-04-24T10:57:31;98446.63;;;23.52
40199;BMP280;25906;43.536;26.068;2023-04-24T11:00:21;98454.19;;;23.67
40199;BMP280;25906;43.536;26.068;2023-04-24T11:03:22;98447.25;;;23.71
40199;BMP280;25906;43.536;26.068;2023-04-24T11:06:08;98450.44;;;23.57
40199;BMP280;25906;43.536;26.068;2023-04-24T11:08:58;98451.63;;;23.61
40199;BMP280;25906;43.536;26.068;2023-04-24T11:11:47;98447.25;;;23.71
40199;BMP280;25906;43.536;26.068;2023-04-24T11:17:43;98437.50;;;23.55
40199;BMP280;25906;43.536;26.068;2023-04-24T11:20:28;98425.84;;;23.34
40199;BMP280;25906;43.536;26.068;2023-04-24T11:23:14;98429.97;;;22.96
40199;BMP280;25906;43.536;26.068;2023-04-24T11:26:13;98429.31;;;22.77
40199;BMP280;25906;43.536;26.068;2023-04-24T11:29:08;98427.66;;;22.23
40199;BMP280;25906;43.536;26.068;2023-04-24T11:31:53;98426.28;;;21.98
40199;BMP280;25906;43.536;26.068;2023-04-24T11:34:40;98426.78;;;22.15
40199;BMP280;25906;43.536;26.068;2023-04-24T11:37:28;98427.78;;;22.49
40199;BMP280;25906;43.536;26.068;2023-04-24T11:40:14;98416.66;;;22.85
40199;BMP280;25906;43.536;26.068;2023-04-24T11:43:06;98418.94;;;22.81
40199;BMP280;25906;43.536;26.068;2023-04-24T11:45:51;98418.47;;;22.64
40199;BMP280;25906;43.536;26.068;2023-04-24T11:48:38;98409.25;;;22.59
40199;BMP280;25906;43.536;26.068;2023-04-24T11:51:26;98411.25;;;22.72
40199;BMP280;25906;43.536;26.068;2023-04-24T11:54:12;98410.88;;;22.49
40199;BMP280;25906;43.536;26.068;2023-04-24T11:56:57;98411.56;;;22.36
40199;BMP280;25906;43.536;26.068;2023-04-24T11:59:43;98411.81;;;22.20
40199;BMP280;25906;43.536;26.068;2023-04-24T12:02:28;98408.31;;;22.06
40199;BMP280;25906;43.536;26.068;2023-04-24T12:05:24;98394.16;;;22.19
40199;BMP280;25906;43.536;26.068;2023-04-24T12:08:10;98395.84;;;21.84
40199;BMP280;25906;43.536;26.068;2023-04-24T12:10:56;98394.81;;;21.69
40199;BMP280;25906;43.536;26.068;2023-04-24T12:13:41;98389.09;;;21.78
40199;BMP280;25906;43.536;26.068;2023-04-24T12:16:27;98385.00;;;21.90
40199;BMP280;25906;43.536;26.068;2023-04-24T12:19:18;98389.97;;;21.86
40199;BMP280;25906;43.536;26.068;2023-04-24T12:22:05;98381.22;;;21.80
40199;BMP280;25906;43.536;26.068;2023-04-24T12:24:58;98374.88;;;21.59
40199;BMP280;25906;43.536;26.068;2023-04-24T12:27:45;98373.47;;;21.52
40199;BMP280;25906;43.536;26.068;2023-04-24T12:30:43;98379.47;;;21.40
40199;BMP280;25906;43.536;26.068;2023-04-24T12:33:34;98379.38;;;21.51
40199;BMP280;25906;43.536;26.068;2023-04-24T12:36:21;98365.81;;;21.38
40199;BMP280;25906;43.536;26.068;2023-04-24T12:39:16;98370.75;;;21.09
40199;BMP280;25906;43.536;26.068;2023-04-24T12:42:02;98367.72;;;21.18
40199;BMP280;25906;43.536;26.068;2023-04-24T12:44:48;98366.44;;;21.25
40199;BMP280;25906;43.536;26.068;2023-04-24T12:47:34;98365.22;;;21.02
40199;BMP280;25906;43.536;26.068;2023-04-24T12:50:20;98358.03;;;21.10
40199;BMP280;25906;43.536;26.068;2023-04-24T12:53:07;98357.31;;;21.09
40199;BMP280;25906;43.536;26.068;2023-04-24T12:55:53;98356.38;;;21.07
40199;BMP280;25906;43.536;26.068;2023-04-24T12:58:38;98355.50;;;20.93
40199;BMP280;25906;43.536;26.068;2023-04-24T13:01:24;98352.25;;;21.00
40199;BMP280;25906;43.536;26.068;2023-04-24T13:04:10;98353.22;;;21.03
40199;BMP280;25906;43.536;26.068;2023-04-24T13:06:55;98349.72;;;20.84
40199;BMP280;25906;43.536;26.068;2023-04-24T13:09:41;98343.84;;;20.85
40199;BMP280;25906;43.536;26.068;2023-04-24T13:12:27;98342.81;;;21.12
40199;BMP280;25906;43.536;26.068;2023-04-24T13:15:12;98343.59;;;21.07
40199;BMP280;25906;43.536;26.068;2023-04-24T13:17:58;98340.47;;;21.03
40199;BMP280;25906;43.536;26.068;2023-04-24T13:20:44;98337.91;;;21.16
40199;BMP280;25906;43.536;26.068;2023-04-24T13:23:30;98333.47;;;21.19
40199;BMP280;25906;43.536;26.068;2023-04-24T13:26:16;98326.56;;;21.23
40199;BMP280;25906;43.536;26.068;2023-04-24T13:29:01;98333.25;;;21.17
40199;BMP280;25906;43.536;26.068;2023-04-24T13:31:50;98330.34;;;21.15
40199;BMP280;25906;43.536;26.068;2023-04-24T13:34:35;98331.84;;;21.10
40199;BMP280;25906;43.536;26.068;2023-04-24T13:37:21;98338.00;;;21.05
40199;BMP280;25906;43.536;26.068;2023-04-24T13:40:08;98326.66;;;20.94
40199;BMP280;25906;43.536;26.068;2023-04-24T13:42:54;98333.53;;;20.89
40199;BMP280;25906;43.536;26.068;2023-04-24T13:45:39;98331.41;;;20.82
40199;BMP280;25906;43.536;26.068;2023-04-24T13:48:25;98332.19;;;20.77
40199;BMP280;25906;43.536;26.068;2023-04-24T13:51:10;98326.06;;;20.47
40199;BMP280;25906;43.536;26.068;2023-04-24T13:53:55;98326.69;;;20.29
40199;BMP280;25906;43.536;26.068;2023-04-24T13:56:41;98322.91;;;20.13
40199;BMP280;25906;43.536;26.068;2023-04-24T13:59:26;98313.13;;;20.10
40199;BMP280;25906;43.536;26.068;2023-04-24T14:02:12;98323.19;;;20.04
40199;BMP280;25906;43.536;26.068;2023-04-24T14:04:57;98313.81;;;20.22
40199;BMP280;25906;43.536;26.068;2023-04-24T14:07:43;98306.44;;;20.28
40199;BMP280;25906;43.536;26.068;2023-04-24T14:10:28;98304.47;;;20.28
40199;BMP280;25906;43.536;26.068;2023-04-24T14:13:14;98310.56;;;20.29
40199;BMP280;25906;43.536;26.068;2023-04-24T14:15:59;98306.66;;;20.59
40199;BMP280;25906;43.536;26.068;2023-04-24T14:18:44;98303.16;;;20.70
40199;BMP280;25906;43.536;26.068;2023-04-24T14:21:30;98302.88;;;20.74
40199;BMP280;25906;43.536;26.068;2023-04-24T14:24:16;98301.69;;;20.69
40199;BMP280;25906;43.536;26.068;2023-04-24T14:27:01;98294.53;;;20.77
40199;BMP280;25906;43.536;26.068;2023-04-24T14:29:46;98288.91;;;20.75
40199;BMP280;25906;43.536;26.068;2023-04-24T14:32:32;98288.91;;;20.75
40199;BMP280;25906;43.536;26.068;2023-04-24T14:35:17;98287.53;;;20.63
40199;BMP280;25906;43.536;26.068;2023-04-24T14:38:03;98282.28;;;20.52
40199;BMP280;25906;43.536;26.068;2023-04-24T14:40:48;98280.75;;;20.32
40199;BMP280;25906;43.536;26.068;2023-04-24T14:43:33;98275.09;;;20.36
40199;BMP280;25906;43.536;26.068;2023-04-24T14:46:20;98272.41;;;20.36
40199;BMP280;25906;43.536;26.068;2023-04-24T14:49:05;98266.53;;;20.37
40199;BMP280;25906;43.536;26.068;2023-04-24T14:51:54;98266.34;;;20.24
40199;BMP280;25906;43.536;26.068;2023-04-24T14:54:40;98271.72;;;20.30
40199;BMP280;25906;43.536;26.068;2023-04-24T14:57:26;98257.25;;;20.33
40199;BMP280;25906;43.536;26.068;2023-04-24T15:00:11;98259.41;;;20.40
40199;BMP280;25906;43.536;26.068;2023-04-24T15:02:57;98254.81;;;20.35
40199;BMP280;25906;43.536;26.068;2023-04-24T15:05:42;98260.31;;;20.48
40199;BMP280;25906;43.536;26.068;2023-04-24T15:08:28;98255.50;;;20.41
40199;BMP280;25906;43.536;26.068;2023-04-24T15:11:13;98252.81;;;20.41
40199;BMP280;25906;43.536;26.068;2023-04-24T15:13:59;98262.31;;;20.42
40199;BMP280;25906;43.536;26.068;2023-04-24T15:16:44;98253.47;;;20.47
40199;BMP280;25906;43.536;26.068;2023-04-24T15:19:30;98259.16;;;20.43
40199;BMP280;25906;43.536;26.068;2023-04-24T15:22:16;98250.75;;;20.23
40199;BMP280;25906;43.536;26.068;2023-04-24T15:25:01;98255.81;;;20.32
40199;BMP280;25906;43.536;26.068;2023-04-24T15:27:47;98256.69;;;20.16
40199;BMP280;25906;43.536;26.068;2023-04-24T15:30:33;98249.13;;;20.14
40199;BMP280;25906;43.536;26.068;2023-04-24T15:33:18;98251.38;;;20.04
40199;BMP280;25906;43.536;26.068;2023-04-24T15:36:04;98244.88;;;19.94
40199;BMP280;25906;43.536;26.068;2023-04-24T15:38:50;98233.16;;;19.92
40199;BMP280;25906;43.536;26.068;2023-04-24T15:41:35;98225.34;;;19.94
40199;BMP280;25906;43.536;26.068;2023-04-24T15:44:21;98231.69;;;19.91
40199;BMP280;25906;43.536;26.068;2023-04-24T15:47:07;98224.06;;;20.00